Time;durP1;ratioP1;P1;durP2;ratioP2;P2;SDS_P1;SDS_P2;PMS_P1;PMS_P2;Temp;Humidity;BMP_temperature;BMP_pressure;BME280_temperature;BME280_humidity;BME280_pressure;Samples;Min_cycle;Max_cycle;Signal;HPM_P1;HPM_P2
2024/03/27 00:01:15;;;;;;;44.80;29.10;;;;;;;1.89;100.00;100400.40;111055;1234;73841;-66
2024/03/27 00:03:42;;;;;;;40.90;26.40;;;;;;;1.83;100.00;100400.98;111043;1235;72682;-66
2024/03/27 00:06:09;;;;;;;40.90;27.60;;;;;;;1.78;100.00;100400.98;111032;1233;74095;-65
2024/03/27 00:08:37;;;;;;;40.40;26.70;;;;;;;1.74;100.00;100404.98;111038;1234;62007;-66
2024/03/27 00:11:04;;;;;;;35.30;25.00;;;;;;;1.70;100.00;100405.42;111062;1235;62087;-66
2024/03/27 00:13:30;;;;;;;37.60;24.50;;;;;;;1.62;100.00;100407.58;111049;1235;74340;-66
2024/03/27 00:15:57;;;;;;;35.20;23.40;;;;;;;1.54;100.00;100408.54;111078;1235;72381;-66
2024/03/27 00:18:24;;;;;;;31.00;22.00;;;;;;;1.49;100.00;100413.39;111001;1235;72640;-66
2024/03/27 00:20:51;;;;;;;33.90;22.60;;;;;;;1.45;100.00;100410.72;111061;1236;62125;-66
2024/03/27 00:23:18;;;;;;;28.60;20.50;;;;;;;1.43;100.00;100411.60;111007;1234;61881;-66
2024/03/27 00:25:44;;;;;;;28.70;19.70;;;;;;;1.27;100.00;100410.80;111070;1235;75365;-65
2024/03/27 00:28:11;;;;;;;24.90;17.10;;;;;;;1.29;100.00;100414.36;111039;1236;73189;-66
2024/03/27 00:30:39;;;;;;;25.60;17.20;;;;;;;1.28;100.00;100413.48;111038;1234;72376;-66
2024/03/27 00:33:06;;;;;;;28.20;18.20;;;;;;;1.24;100.00;100419.66;111068;1235;62131;-66
2024/03/27 00:35:33;;;;;;;22.90;16.10;;;;;;;1.21;100.00;100425.93;111059;1232;62038;-67
2024/03/27 00:38:00;;;;;;;18.90;12.80;;;;;;;1.19;100.00;100432.77;111037;1237;75913;-64
2024/03/27 00:40:27;;;;;;;24.10;15.80;;;;;;;1.12;100.00;100437.76;111036;1237;73131;-65
2024/03/27 00:42:55;;;;;;;20.20;13.80;;;;;;;1.10;100.00;100437.52;111027;1234;72822;-65
2024/03/27 00:45:22;;;;;;;21.00;14.10;;;;;;;1.09;100.00;100437.55;111049;1235;60760;-65
2024/03/27 00:47:50;;;;;;;22.40;15.60;;;;;;;1.09;100.00;100442.61;111076;1233;61866;-65
2024/03/27 00:50:17;;;;;;;22.70;13.90;;;;;;;1.10;100.00;100450.14;111030;1236;75206;-64
2024/03/27 00:52:46;;;;;;;23.90;15.80;;;;;;;1.12;100.00;100448.69;111054;1234;73223;-65
2024/03/27 00:55:14;;;;;;;26.60;17.20;;;;;;;1.14;100.00;100448.05;111058;1235;71167;-65
2024/03/27 00:57:42;;;;;;;46.90;28.90;;;;;;;1.17;100.00;100454.16;111010;1233;62030;-66
2024/03/27 01:00:10;;;;;;;40.50;26.70;;;;;;;1.20;100.00;100460.64;111085;1233;62015;-66
2024/03/27 01:02:37;;;;;;;33.80;22.70;;;;;;;1.22;100.00;100460.02;111059;1237;75297;-65
2024/03/27 01:05:05;;;;;;;24.70;16.40;;;;;;;1.22;100.00;100459.86;111004;1235;73132;-66
2024/03/27 01:07:33;;;;;;;23.40;15.60;;;;;;;1.16;100.00;100458.46;110949;1233;71612;-65
2024/03/27 01:10:01;;;;;;;21.40;14.40;;;;;;;1.09;100.00;100455.59;111063;1236;62039;-65
2024/03/27 01:12:28;;;;;;;27.40;16.40;;;;;;;0.98;100.00;100459.40;111095;1235;61907;-65
2024/03/27 01:14:55;;;;;;;22.50;14.40;;;;;;;0.89;100.00;100455.11;110976;1235;75366;-65
2024/03/27 01:17:22;;;;;;;20.90;14.10;;;;;;;0.83;100.00;100456.70;111019;1235;72950;-69
2024/03/27 01:19:50;;;;;;;20.50;13.40;;;;;;;0.74;100.00;100458.29;111002;1235;72944;-68
2024/03/27 01:22:31;;;;;;;20.40;13.30;;;;;;;0.59;100.00;100456.66;108110;1237;3781932;-65
2024/03/27 01:28:52;;;;;;;22.20;13.70;;;;;;;0.18;100.00;100456.32;110950;1236;76326;-64
2024/03/27 01:31:19;;;;;;;24.00;14.70;;;;;;;0.09;100.00;100458.55;111008;1235;73160;-64
2024/03/27 01:33:49;;;;;;;23.90;14.20;;;;;;;0.01;100.00;100463.05;110974;1232;71179;-65
2024/03/27 01:36:15;;;;;;;22.50;14.70;;;;;;;-0.05;100.00;100464.63;111065;1235;61623;-65
2024/03/27 01:38:42;;;;;;;22.00;13.90;;;;;;;-0.09;100.00;100466.36;111000;1234;62103;-64
2024/03/27 01:41:10;;;;;;;23.10;14.10;;;;;;;-0.12;100.00;100468.36;110739;1235;75132;-64
2024/03/27 01:43:37;;;;;;;20.30;13.50;;;;;;;-0.10;100.00;100478.63;110969;1233;72747;-64
2024/03/27 01:46:06;;;;;;;15.60;10.40;;;;;;;-0.04;100.00;100479.77;111037;1234;72012;-65
2024/03/27 01:48:33;;;;;;;16.80;10.50;;;;;;;0.02;100.00;100481.98;110847;1240;61953;-64
2024/03/27 01:51:00;;;;;;;20.00;12.40;;;;;;;0.07;100.00;100484.04;111007;1235;62291;-64
2024/03/27 01:53:27;;;;;;;19.50;12.20;;;;;;;0.12;100.00;100488.84;111053;1237;75236;-65
2024/03/27 01:55:54;;;;;;;22.60;12.80;;;;;;;0.17;100.00;100486.66;111010;1236;72849;-64
2024/03/27 01:58:21;;;;;;;21.30;12.40;;;;;;;0.20;100.00;100485.35;110799;1235;72712;-64
2024/03/27 02:00:48;;;;;;;22.80;13.80;;;;;;;0.13;100.00;100487.60;111062;1235;61910;-65
2024/03/27 02:03:16;;;;;;;20.60;13.20;;;;;;;0.05;100.00;100490.73;110813;1233;62368;-64
2024/03/27 02:05:45;;;;;;;22.60;14.40;;;;;;;0.05;100.00;100490.27;110871;1235;72940;-64
2024/03/27 02:08:11;;;;;;;24.70;14.70;;;;;;;0.07;100.00;100490.37;111022;1234;72533;-65
2024/03/27 02:10:38;;;;;;;22.50;13.60;;;;;;;0.11;100.00;100488.27;111025;1235;73027;-65
2024/03/27 02:13:05;;;;;;;26.20;15.20;;;;;;;0.11;100.00;100490.65;111027;1235;62025;-64
2024/03/27 02:15:32;;;;;;;24.30;15.30;;;;;;;0.08;100.00;100492.80;111036;1235;60836;-64
2024/03/27 02:17:59;;;;;;;25.60;15.50;;;;;;;0.07;100.00;100492.08;111020;1234;72913;-65
2024/03/27 02:20:26;;;;;;;27.20;15.80;;;;;;;0.03;100.00;100499.35;111058;1237;71590;-64
2024/03/27 02:22:54;;;;;;;25.40;15.60;;;;;;;-0.02;100.00;100504.73;110984;1237;72299;-64
2024/03/27 02:25:35;;;;;;;27.00;15.80;;;;;;;-0.02;100.00;100508.08;111028;1232;61872;-64
2024/03/27 02:28:03;;;;;;;26.80;15.40;;;;;;;-0.01;100.00;100508.84;111036;1235;62123;-64
2024/03/27 02:30:30;;;;;;;26.00;15.50;;;;;;;-0.01;100.00;100507.07;111041;1234;74154;-65
2024/03/27 02:32:56;;;;;;;27.60;16.60;;;;;;;-0.02;100.00;100503.35;111002;1233;73193;-64
2024/03/27 02:35:23;;;;;;;31.50;17.20;;;;;;;-0.09;100.00;100505.94;111024;1234;73071;-65
2024/03/27 02:37:50;;;;;;;26.90;17.50;;;;;;;-0.17;100.00;100501.91;110982;1234;61917;-65
2024/03/27 02:40:17;;;;;;;26.70;17.00;;;;;;;-0.19;100.00;100506.55;111053;1232;61959;-64
2024/03/27 02:42:44;;;;;;;28.00;17.70;;;;;;;-0.18;100.00;100508.29;110994;1235;75950;-64
2024/03/27 02:45:11;;;;;;;26.70;17.40;;;;;;;-0.19;100.00;100508.48;111038;1237;72564;-65
2024/03/27 02:47:38;;;;;;;30.00;20.10;;;;;;;-0.22;100.00;100512.09;111051;1236;72506;-65
2024/03/27 02:50:05;;;;;;;27.20;19.20;;;;;;;-0.25;100.00;100508.27;111020;1235;61918;-65
2024/03/27 02:52:32;;;;;;;29.30;20.00;;;;;;;-0.28;100.00;100506.54;111053;1233;62020;-66
2024/03/27 02:54:59;;;;;;;28.00;18.20;;;;;;;-0.32;100.00;100506.83;111022;1235;75082;-65
2024/03/27 02:57:26;;;;;;;27.60;18.20;;;;;;;-0.35;100.00;100508.38;111013;1235;73246;-64
2024/03/27 02:59:53;;;;;;;28.40;18.20;;;;;;;-0.37;100.00;100509.68;111007;1234;72527;-64
2024/03/27 03:02:20;;;;;;;29.50;19.20;;;;;;;-0.38;100.00;100518.55;111029;1234;61875;-64
2024/03/27 03:04:46;;;;;;;26.90;18.40;;;;;;;-0.36;100.00;100519.09;110962;1235;61911;-64
2024/03/27 03:07:13;;;;;;;26.70;18.30;;;;;;;-0.34;100.00;100527.19;110989;1234;75991;-64
2024/03/27 03:09:40;;;;;;;25.50;18.00;;;;;;;-0.31;100.00;100529.04;111022;1235;72960;-65
2024/03/27 03:12:07;;;;;;;26.30;18.20;;;;;;;-0.31;100.00;100525.40;111002;1234;71587;-65
2024/03/27 03:14:35;;;;;;;25.00;16.40;;;;;;;-0.35;100.00;100521.85;110998;1235;61911;-64
2024/03/27 03:17:02;;;;;;;25.70;16.40;;;;;;;-0.40;100.00;100514.82;111041;1234;61068;-65
2024/03/27 03:19:30;;;;;;;25.10;17.10;;;;;;;-0.44;100.00;100514.29;110968;1235;74085;-64
2024/03/27 03:21:57;;;;;;;25.80;16.90;;;;;;;-0.48;100.00;100513.84;111053;1235;71217;-64
2024/03/27 03:24:24;;;;;;;26.00;16.80;;;;;;;-0.48;100.00;100514.30;110982;1233;72989;-64
2024/03/27 03:26:50;;;;;;;24.60;15.50;;;;;;;-0.46;100.00;100523.43;111014;1232;62029;-63
2024/03/27 03:29:19;;;;;;;25.00;17.00;;;;;;;-0.46;100.00;100525.70;110951;1235;61911;-64
2024/03/27 03:31:46;;;;;;;25.40;16.20;;;;;;;-0.43;100.00;100524.15;111004;1235;76673;-64
2024/03/27 03:34:14;;;;;;;27.10;16.70;;;;;;;-0.40;100.00;100528.98;111025;1234;72951;-64
2024/03/27 03:36:41;;;;;;;23.50;16.20;;;;;;;-0.43;100.00;100530.21;111007;1236;72379;-65
2024/03/27 03:39:08;;;;;;;28.30;17.40;;;;;;;-0.46;100.00;100527.67;111050;1233;61059;-64
2024/03/27 03:41:35;;;;;;;28.10;17.60;;;;;;;-0.50;100.00;100525.41;111029;1234;60750;-65
2024/03/27 03:44:01;;;;;;;27.50;18.50;;;;;;;-0.47;100.00;100525.45;111024;1235;75121;-64
2024/03/27 03:46:31;;;;;;;24.60;15.80;;;;;;;-0.42;100.00;100524.48;110987;1235;73180;-64
2024/03/27 03:48:58;;;;;;;24.90;17.20;;;;;;;-0.42;100.00;100530.86;110987;1237;72304;-66
2024/03/27 03:51:25;;;;;;;27.50;18.40;;;;;;;-0.41;100.00;100532.98;111041;1233;62052;-65
2024/03/27 03:53:52;;;;;;;30.10;19.10;;;;;;;-0.40;100.00;100533.17;110997;1234;62087;-66
2024/03/27 03:56:19;;;;;;;30.00;18.60;;;;;;;-0.37;100.00;100533.70;111018;1236;75546;-66
2024/03/27 03:58:46;;;;;;;27.90;18.10;;;;;;;-0.32;100.00;100534.11;111008;1235;72342;-65
2024/03/27 04:01:14;;;;;;;24.40;15.30;;;;;;;-0.26;100.00;100533.40;110989;1234;71416;-67
2024/03/27 04:03:41;;;;;;;26.00;17.60;;;;;;;-0.22;100.00;100537.81;111044;1235;62011;-65
2024/03/27 04:06:08;;;;;;;25.90;17.50;;;;;;;-0.19;100.00;100542.13;110977;1232;61104;-66
2024/03/27 04:08:35;;;;;;;27.60;17.40;;;;;;;-0.15;100.00;100547.37;111018;1235;75345;-67
2024/03/27 04:11:05;;;;;;;28.80;18.30;;;;;;;-0.10;100.00;100544.76;111042;1235;72344;-65
2024/03/27 04:13:32;;;;;;;30.10;20.30;;;;;;;-0.02;100.00;100549.16;111039;1233;71625;-65
2024/03/27 04:16:00;;;;;;;28.40;20.60;;;;;;;0.08;100.00;100548.73;111006;1235;60979;-65
2024/03/27 04:18:28;;;;;;;36.10;25.40;;;;;;;0.16;100.00;100548.95;111037;1235;59901;-66
2024/03/27 04:20:54;;;;;;;35.40;24.40;;;;;;;0.23;100.00;100546.08;111018;1233;75742;-66
2024/03/27 04:23:21;;;;;;;33.60;23.10;;;;;;;0.33;100.00;100540.73;111033;1235;71660;-65
2024/03/27 04:25:50;;;;;;;32.60;22.70;;;;;;;0.44;100.00;100544.77;111008;1235;72021;-64
2024/03/27 04:28:33;;;;;;;35.40;23.50;;;;;;;0.57;100.00;100548.63;111007;1233;62070;-65
2024/03/27 04:31:04;;;;;;;33.20;22.60;;;;;;;0.68;100.00;100552.40;111045;1234;61996;-64
2024/03/27 04:33:31;;;;;;;39.10;26.60;;;;;;;0.79;100.00;100550.84;111066;1235;75149;-65
2024/03/27 04:35:58;;;;;;;36.10;22.70;;;;;;;0.90;100.00;100547.43;111021;1235;71226;-64
2024/03/27 04:38:25;;;;;;;30.30;20.50;;;;;;;0.96;100.00;100546.78;111021;1237;73244;-65
2024/03/27 04:40:52;;;;;;;39.90;25.00;;;;;;;1.01;100.00;100548.84;111049;1235;61911;-64
2024/03/27 04:43:19;;;;;;;37.40;25.80;;;;;;;1.07;100.00;100549.63;111011;1234;61944;-66
2024/03/27 04:45:46;;;;;;;41.80;27.70;;;;;;;1.17;100.00;100551.70;111031;1234;75217;-64
2024/03/27 04:48:13;;;;;;;40.70;27.40;;;;;;;1.26;100.00;100549.67;111036;1235;73159;-65
2024/03/27 04:50:40;;;;;;;41.30;27.70;;;;;;;1.35;100.00;100551.88;111003;1235;72610;-65
2024/03/27 04:53:07;;;;;;;39.90;27.20;;;;;;;1.46;100.00;100553.80;111010;1234;63550;-66
2024/03/27 04:55:33;;;;;;;41.00;27.80;;;;;;;1.57;100.00;100554.45;111011;1235;61898;-66
2024/03/27 04:58:00;;;;;;;43.00;28.70;;;;;;;1.68;100.00;100551.89;110989;1236;75657;-65
2024/03/27 05:00:27;;;;;;;46.10;30.90;;;;;;;1.73;100.00;100544.90;110989;1235;73274;-67
2024/03/27 05:02:55;;;;;;;48.80;32.40;;;;;;;1.74;100.00;100540.56;111007;1233;72309;-66
2024/03/27 05:05:23;;;;;;;47.90;32.10;;;;;;;1.76;100.00;100540.20;111006;1237;61900;-65
2024/03/27 05:07:49;;;;;;;46.00;31.70;;;;;;;1.87;100.00;100545.09;110952;1233;62007;-65
2024/03/27 05:10:16;;;;;;;47.30;32.40;;;;;;;2.00;100.00;100540.78;111051;1237;74277;-66
2024/03/27 05:12:43;;;;;;;41.60;30.30;;;;;;;2.13;100.00;100542.86;111068;1236;71466;-65
2024/03/27 05:15:10;;;;;;;38.60;26.70;;;;;;;2.24;100.00;100538.05;111041;1234;73268;-65
2024/03/27 05:17:37;;;;;;;40.10;26.40;;;;;;;2.35;100.00;100531.14;111010;1234;62032;-65
2024/03/27 05:20:06;;;;;;;37.90;26.60;;;;;;;2.44;100.00;100533.45;110981;1235;60283;-65
2024/03/27 05:22:33;;;;;;;49.00;31.90;;;;;;;2.55;100.00;100533.48;110988;1234;75241;-66
2024/03/27 05:25:01;;;;;;;50.80;33.90;;;;;;;2.67;100.00;100533.60;111036;1232;73115;-66
2024/03/27 05:27:28;;;;;;;56.20;38.60;;;;;;;2.80;100.00;100534.09;111035;1234;71368;-66
2024/03/27 05:29:55;;;;;;;38.40;26.90;;;;;;;2.92;100.00;100533.83;111028;1234;61988;-68
2024/03/27 05:32:22;;;;;;;29.20;21.80;;;;;;;3.02;100.00;100532.54;110842;1234;62171;-66
2024/03/27 05:34:49;;;;;;;28.40;21.70;;;;;;;3.08;100.00;100531.83;111004;1235;75954;-65
2024/03/27 05:37:16;;;;;;;30.30;22.70;;;;;;;3.20;100.00;100536.11;110973;1234;72019;-66
2024/03/27 05:39:42;;;;;;;30.00;22.90;;;;;;;3.31;100.00;100536.14;111010;1235;72548;-66
2024/03/27 05:42:09;;;;;;;28.70;22.20;;;;;;;3.44;100.00;100536.02;110983;1233;60985;-66
2024/03/27 05:44:36;;;;;;;29.20;21.70;;;;;;;3.59;100.00;100534.05;111002;1233;61878;-67
2024/03/27 05:47:03;;;;;;;32.00;22.60;;;;;;;3.74;100.00;100534.13;111044;1235;75756;-66
2024/03/27 05:49:31;;;;;;;30.70;22.60;;;;;;;3.88;100.00;100542.30;111026;1234;72988;-67
2024/03/27 05:52:00;;;;;;;30.20;21.50;;;;;;;4.03;100.00;100545.17;110882;1233;73390;-66
2024/03/27 05:54:27;;;;;;;32.50;24.00;;;;;;;4.18;100.00;100547.63;110947;1233;62046;-66
2024/03/27 05:56:54;;;;;;;28.30;21.60;;;;;;;4.35;100.00;100556.25;111038;1234;60088;-66
2024/03/27 05:59:20;;;;;;;31.20;23.00;;;;;;;4.54;100.00;100558.20;111056;1234;75310;-67
2024/03/27 06:01:48;;;;;;;30.30;22.40;;;;;;;4.71;100.00;100558.25;111024;1235;71614;-65
2024/03/27 06:04:14;;;;;;;30.80;21.70;;;;;;;4.87;100.00;100564.53;110995;1233;71273;-67
2024/03/27 06:06:41;;;;;;;28.90;21.90;;;;;;;5.02;100.00;100568.23;111003;1233;62032;-68
2024/03/27 06:09:08;;;;;;;29.40;23.10;;;;;;;5.18;100.00;100576.96;110991;1233;61474;-66
2024/03/27 06:11:35;;;;;;;28.90;21.70;;;;;;;5.33;100.00;100581.71;111038;1234;76433;-66
2024/03/27 06:14:04;;;;;;;26.90;19.90;;;;;;;5.50;100.00;100580.79;110995;1235;72884;-66
2024/03/27 06:16:31;;;;;;;27.80;21.00;;;;;;;5.63;100.00;100579.35;111030;1234;72276;-66
2024/03/27 06:18:58;;;;;;;25.30;19.60;;;;;;;5.78;100.00;100578.95;110968;1234;61897;-66
2024/03/27 06:21:25;;;;;;;23.90;17.40;;;;;;;5.94;100.00;100576.84;111046;1237;61908;-66
2024/03/27 06:23:52;;;;;;;20.90;16.50;;;;;;;6.08;100.00;100575.05;110942;1234;75969;-65
2024/03/27 06:26:19;;;;;;;20.50;15.30;;;;;;;6.25;100.00;100570.67;110862;1237;71561;-65
2024/03/27 06:28:46;;;;;;;17.80;13.90;;;;;;;6.39;100.00;100574.33;111059;1235;73018;-65
2024/03/27 06:31:13;;;;;;;16.80;12.80;;;;;;;6.55;100.00;100576.03;110875;1234;61760;-65
2024/03/27 06:33:40;;;;;;;17.40;12.10;;;;;;;6.70;100.00;100578.60;110781;1236;61836;-67
2024/03/27 06:36:07;;;;;;;16.90;12.00;;;;;;;6.88;100.00;100578.99;110862;1237;74060;-65
2024/03/27 06:38:40;;;;;;;13.20;10.20;;;;;;;7.02;100.00;100572.52;110785;1235;71438;-66
2024/03/27 06:41:06;;;;;;;12.30;9.70;;;;;;;7.16;100.00;100571.70;110836;1235;71115;-66
2024/03/27 06:43:33;;;;;;;11.20;8.30;;;;;;;7.28;100.00;100570.79;110780;1233;61898;-67
2024/03/27 06:46:00;;;;;;;9.70;6.80;;;;;;;7.39;100.00;100568.45;110808;1233;61910;-66
2024/03/27 06:48:33;;;;;;;9.40;6.30;;;;;;;7.50;100.00;100561.82;110841;1234;75432;-67
2024/03/27 06:51:00;;;;;;;8.80;5.90;;;;;;;7.62;100.00;100556.04;110939;1234;71903;-67
2024/03/27 06:53:27;;;;;;;9.70;6.60;;;;;;;7.75;100.00;100555.31;110693;1235;72503;-67
2024/03/27 06:55:53;;;;;;;7.90;5.80;;;;;;;7.88;100.00;100557.15;110856;1233;61924;-66
2024/03/27 06:58:20;;;;;;;9.10;6.30;;;;;;;8.02;100.00;100557.71;110828;1235;61867;-66
2024/03/27 07:00:47;;;;;;;8.20;5.40;;;;;;;8.16;100.00;100557.37;110862;1234;75530;-68
2024/03/27 07:03:14;;;;;;;8.20;5.70;;;;;;;8.28;100.00;100559.16;110862;1232;72645;-67
2024/03/27 07:05:41;;;;;;;7.10;5.50;;;;;;;8.39;100.00;100563.56;110807;1233;73977;-67
2024/03/27 07:08:08;;;;;;;7.80;5.80;;;;;;;8.49;100.00;100562.60;110925;1234;62103;-66
2024/03/27 07:10:35;;;;;;;9.60;6.70;;;;;;;8.59;100.00;100564.20;111301;1235;61988;-67
2024/03/27 07:13:03;;;;;;;9.30;6.70;;;;;;;8.68;100.00;100563.55;111489;1234;75043;-67
2024/03/27 07:15:30;;;;;;;7.50;5.70;;;;;;;8.77;100.00;100562.02;110839;1234;71656;-66
2024/03/27 07:17:57;;;;;;;9.00;6.20;;;;;;;8.85;100.00;100563.08;110845;1234;72571;-67
2024/03/27 07:20:24;;;;;;;9.10;5.60;;;;;;;8.88;100.00;100559.09;110909;1233;61920;-67
2024/03/27 07:22:51;;;;;;;5.90;4.40;;;;;;;8.97;100.00;100556.70;110791;1234;61901;-68
2024/03/27 07:25:18;;;;;;;6.80;4.30;;;;;;;9.08;100.00;100550.89;110828;1233;76220;-67
2024/03/27 07:27:49;;;;;;;5.20;3.40;;;;;;;9.21;100.00;100552.75;110881;1237;72646;-66
2024/03/27 07:30:16;;;;;;;6.10;3.50;;;;;;;9.30;100.00;100551.73;110814;1234;73791;-69
2024/03/27 07:32:45;;;;;;;7.70;3.80;;;;;;;9.38;100.00;100551.94;110837;1233;63072;-66
2024/03/27 07:35:12;;;;;;;5.10;3.00;;;;;;;9.48;96.16;100549.76;110858;1234;61918;-66
2024/03/27 07:37:39;;;;;;;5.50;3.00;;;;;;;9.57;90.71;100544.15;111188;1234;75519;-66
2024/03/27 07:40:07;;;;;;;6.10;2.90;;;;;;;9.61;83.03;100545.42;110852;1234;71864;-66
2024/03/27 07:42:34;;;;;;;4.70;2.20;;;;;;;9.62;76.39;100544.90;110814;1237;72753;-65
2024/03/27 07:45:02;;;;;;;3.50;2.20;;;;;;;9.70;74.47;100545.36;110797;1233;62058;-65
2024/03/27 07:47:34;;;;;;;4.40;2.30;;;;;;;9.81;72.72;100545.35;110809;1234;62282;-65
2024/03/27 07:50:02;;;;;;;4.20;2.40;;;;;;;9.88;71.25;100540.73;110816;1234;75226;-65
2024/03/27 07:52:30;;;;;;;6.20;3.50;;;;;;;9.97;69.56;100538.20;110836;1235;73677;-64
2024/03/27 07:54:57;;;;;;;5.00;3.10;;;;;;;10.08;68.79;100534.66;110779;1234;72485;-64
2024/03/27 07:57:24;;;;;;;5.70;3.20;;;;;;;10.23;67.90;100527.88;110811;1233;61901;-65
2024/03/27 07:59:51;;;;;;;6.60;3.80;;;;;;;10.32;65.90;100525.29;110792;1233;61921;-66
2024/03/27 08:02:18;;;;;;;5.90;3.60;;;;;;;10.35;64.51;100520.86;110605;1234;75356;-66
2024/03/27 08:04:45;;;;;;;7.20;4.50;;;;;;;10.33;63.30;100509.86;110792;1234;72565;-64
2024/03/27 08:07:16;;;;;;;6.10;4.10;;;;;;;10.33;61.70;100514.09;110967;1233;72684;-66
2024/03/27 08:09:51;;;;;;;6.20;3.80;;;;;;;10.36;59.88;100514.52;110797;1237;61924;-65
2024/03/27 08:12:23;;;;;;;6.60;3.90;;;;;;;10.43;59.09;100513.56;111181;1235;61865;-66
2024/03/27 08:14:50;;;;;;;5.60;3.40;;;;;;;10.48;57.55;100512.41;111184;1234;74446;-66
2024/03/27 08:17:18;;;;;;;5.90;3.20;;;;;;;10.49;56.68;100515.57;110850;1234;72280;-65
2024/03/27 08:19:47;;;;;;;6.40;3.00;;;;;;;10.46;55.60;100512.35;110816;1235;73637;-65
2024/03/27 08:22:19;;;;;;;4.70;2.60;;;;;;;10.45;55.75;100508.39;110797;1234;61911;-65
2024/03/27 08:24:51;;;;;;;5.20;3.00;;;;;;;10.48;56.62;100512.41;110848;1234;62029;-66
2024/03/27 08:27:31;;;;;;;5.80;2.80;;;;;;;10.54;57.09;100510.54;110818;1235;75435;-66
2024/03/27 08:30:10;;;;;;;5.10;2.60;;;;;;;10.66;57.26;100509.91;111135;1233;73351;-65
2024/03/27 08:32:40;;;;;;;4.80;2.70;;;;;;;10.75;55.73;100510.02;110807;1235;74037;-65
2024/03/27 08:35:24;;;;;;;4.90;2.90;;;;;;;10.74;55.11;100506.12;110823;1237;61918;-65
2024/03/27 08:38:11;;;;;;;4.60;2.40;;;;;;;10.82;55.98;100501.12;110896;1233;62101;-66
2024/03/27 08:40:51;;;;;;;5.30;2.70;;;;;;;10.97;55.43;100499.65;110953;1234;76243;-66
2024/03/27 08:43:32;;;;;;;4.70;2.20;;;;;;;11.11;52.98;100503.08;110841;1234;72829;-65
2024/03/27 08:46:04;;;;;;;4.60;2.30;;;;;;;11.14;52.42;100500.89;110778;1233;72996;-66
2024/03/27 08:49:00;;;;;;;4.20;2.40;;;;;;;11.18;52.96;100502.63;110939;1233;61930;-67
2024/03/27 08:51:48;;;;;;;3.90;1.90;;;;;;;11.28;52.33;100498.60;111111;1234;61328;-64
2024/03/27 08:54:16;;;;;;;3.70;1.90;;;;;;;11.37;51.19;100495.63;110959;1234;75471;-64
2024/03/27 08:56:43;;;;;;;3.90;1.80;;;;;;;11.43;49.97;100493.28;110938;1233;73778;-65
2024/03/27 08:59:10;;;;;;;3.40;2.10;;;;;;;11.41;48.90;100495.20;110954;1236;72528;-64
2024/03/27 09:01:37;;;;;;;4.80;2.40;;;;;;;11.31;48.78;100491.70;110948;1234;61833;-65
2024/03/27 09:04:04;;;;;;;3.90;2.10;;;;;;;11.28;49.56;100489.13;111046;1232;61921;-65
2024/03/27 09:06:31;;;;;;;4.30;2.40;;;;;;;11.34;48.25;100487.59;111029;1233;74314;-65
2024/03/27 09:08:58;;;;;;;5.20;2.90;;;;;;;11.31;48.65;100484.59;110991;1236;72398;-65
2024/03/27 09:11:25;;;;;;;4.70;2.80;;;;;;;11.28;49.60;100482.80;110998;1237;72592;-64
2024/03/27 09:13:52;;;;;;;4.90;2.80;;;;;;;11.27;50.15;100476.07;110985;1233;62019;-65
2024/03/27 09:16:19;;;;;;;4.50;2.80;;;;;;;11.28;51.01;100469.61;111021;1233;61917;-64
2024/03/27 09:18:46;;;;;;;4.90;2.70;;;;;;;11.35;50.66;100461.06;111007;1236;75241;-65
2024/03/27 09:21:13;;;;;;;5.50;3.30;;;;;;;11.47;51.17;100454.14;111014;1235;72583;-65
2024/03/27 09:23:40;;;;;;;4.20;2.80;;;;;;;11.59;50.76;100451.42;111003;1233;71310;-65
2024/03/27 09:26:07;;;;;;;4.50;2.90;;;;;;;11.69;49.90;100453.47;111056;1232;62083;-66
2024/03/27 09:28:34;;;;;;;4.90;3.20;;;;;;;11.73;49.89;100451.44;111043;1233;60589;-65
2024/03/27 09:31:04;;;;;;;4.80;2.80;;;;;;;11.69;49.71;100454.86;111055;1234;74125;-66
2024/03/27 09:33:31;;;;;;;4.20;2.50;;;;;;;11.70;50.49;100452.49;111031;1233;71410;-65
2024/03/27 09:35:58;;;;;;;5.50;3.80;;;;;;;11.76;49.90;100455.88;111009;1234;71706;-63
2024/03/27 09:38:29;;;;;;;4.50;3.00;;;;;;;11.78;50.62;100456.14;111018;1233;62153;-65
2024/03/27 09:41:01;;;;;;;6.20;3.10;;;;;;;11.83;48.93;100457.44;111046;1233;61885;-64
2024/03/27 09:43:29;;;;;;;4.70;2.70;;;;;;;11.87;48.30;100460.63;111018;1234;75291;-67
2024/03/27 09:45:56;;;;;;;4.20;2.70;;;;;;;11.93;46.75;100456.60;111044;1236;72682;-66
2024/03/27 09:48:26;;;;;;;4.60;2.50;;;;;;;11.91;46.42;100453.98;110979;1234;71347;-65
2024/03/27 09:50:53;;;;;;;5.00;3.40;;;;;;;11.89;46.71;100448.38;110954;1232;61918;-65
2024/03/27 09:53:20;;;;;;;5.20;3.50;;;;;;;11.89;48.10;100446.71;111043;1233;62023;-64
2024/03/27 09:55:48;;;;;;;6.00;4.00;;;;;;;11.92;49.12;100445.11;111009;1232;75402;-64
2024/03/27 09:58:17;;;;;;;5.10;3.60;;;;;;;11.92;49.42;100448.21;111034;1234;72599;-65
2024/03/27 10:00:44;;;;;;;5.50;3.80;;;;;;;11.95;50.10;100443.12;110974;1232;71336;-66
2024/03/27 10:03:11;;;;;;;4.60;3.10;;;;;;;12.01;49.56;100449.42;110963;1235;61999;-65
2024/03/27 10:05:42;;;;;;;4.20;2.40;;;;;;;12.04;45.51;100451.94;111085;1233;62016;-68
2024/03/27 10:08:09;;;;;;;4.40;3.10;;;;;;;12.08;45.22;100450.83;110979;1234;75489;-66
2024/03/27 10:10:37;;;;;;;5.90;4.10;;;;;;;12.16;46.81;100450.54;110998;1233;72757;-66
2024/03/27 10:13:04;;;;;;;6.10;3.70;;;;;;;12.26;47.08;100443.67;111096;1234;72513;-65
2024/03/27 10:15:34;;;;;;;5.90;4.10;;;;;;;12.34;47.41;100444.56;110900;1232;61888;-65
2024/03/27 10:18:03;;;;;;;6.00;3.90;;;;;;;12.37;47.16;100441.02;111016;1233;61911;-64
2024/03/27 10:20:30;;;;;;;6.30;4.00;;;;;;;12.37;47.61;100442.31;111080;1234;76327;-64
2024/03/27 10:22:58;;;;;;;4.90;3.80;;;;;;;12.41;48.05;100443.64;111003;1233;72944;-66
2024/03/27 10:25:25;;;;;;;6.20;4.30;;;;;;;12.44;48.20;100441.00;110816;1238;72723;-66
2024/03/27 10:27:52;;;;;;;5.80;3.90;;;;;;;12.48;49.19;100438.91;111014;1233;61888;-65
2024/03/27 10:30:20;;;;;;;4.60;3.40;;;;;;;12.61;49.71;100431.70;111042;1234;61915;-66
2024/03/27 10:32:47;;;;;;;6.50;4.20;;;;;;;12.75;49.89;100431.16;111033;1233;75267;-65
2024/03/27 10:35:14;;;;;;;5.90;3.70;;;;;;;12.83;49.85;100431.16;111060;1233;72857;-65
2024/03/27 10:37:42;;;;;;;4.20;2.80;;;;;;;12.94;49.04;100429.52;111065;1233;71260;-65
2024/03/27 10:40:09;;;;;;;4.30;2.90;;;;;;;13.01;46.42;100429.10;110972;1234;61956;-65
2024/03/27 10:42:38;;;;;;;5.30;3.50;;;;;;;13.04;45.98;100427.70;111036;1234;61918;-64
2024/03/27 10:45:06;;;;;;;5.00;3.10;;;;;;;13.02;46.66;100426.05;111129;1234;75579;-67
2024/03/27 10:47:34;;;;;;;5.90;3.60;;;;;;;13.05;47.26;100428.77;110890;1234;72449;-68
2024/03/27 10:50:04;;;;;;;5.40;4.10;;;;;;;13.12;46.69;100419.13;110985;1234;72502;-66
2024/03/27 10:52:31;;;;;;;5.00;3.50;;;;;;;13.20;46.45;100419.56;110969;1233;61900;-65
2024/03/27 10:55:00;;;;;;;4.40;3.00;;;;;;;13.27;46.89;100418.90;110933;1234;61904;-64
2024/03/27 10:57:28;;;;;;;5.90;3.70;;;;;;;13.38;46.65;100414.80;110987;1234;75298;-65
2024/03/27 10:59:56;;;;;;;4.60;3.30;;;;;;;13.36;45.37;100412.25;111023;1237;74001;-64
2024/03/27 11:02:23;;;;;;;5.40;3.20;;;;;;;13.24;44.94;100405.83;110870;1235;71274;-65
2024/03/27 11:04:54;;;;;;;6.50;3.40;;;;;;;13.17;45.41;100405.95;110962;1233;61936;-65
2024/03/27 11:07:22;;;;;;;7.60;4.00;;;;;;;13.21;45.91;100403.27;110975;1232;61783;-66
2024/03/27 11:09:50;;;;;;;5.60;3.70;;;;;;;13.33;45.90;100404.11;111042;1234;75309;-66
2024/03/27 11:12:21;;;;;;;4.60;3.50;;;;;;;13.48;45.74;100405.08;111021;1233;72726;-65
2024/03/27 11:14:48;;;;;;;5.80;3.90;;;;;;;13.64;46.13;100399.21;111031;1237;71798;-66